KBPG/BPG METAR and TAF weather

Enter ICAO airport designator
Station Type Date Time Source
KBPG METAR 2019/12/16 03:35 UTC NOAA

KBPG 160335Z AUTO 05019G24KT 7SM CLR 04/01 A2985 RMK AO2 T00400010


Station Type Date Time Source
KBPG Decoded METAR 2019/12/16 03:35 UTC NOAA

Big Spring, Big Spring McMahon-Wrinkle Airport, TX, United States (KBPG) 32-12N 101-31W
Dec 15, 2019 - 10:35 PM EST / 2019.12.16 0335 UTC
Wind: from the NE (050 degrees) at 22 MPH (19 KT) gusting to 28 MPH (24 KT):0
Visibility: 7 mile(s):0
Sky conditions: clear
Temperature: 39.2 F (4.0 C)
Dew Point: 33.8 F (1.0 C)
Relative Humidity: 80%
Pressure (altimeter): 29.85 in. Hg (1010 hPa)
ob: KBPG 160335Z AUTO 05019G24KT 7SM CLR 04/01 A2985 RMK AO2 T00400010
cycle: 3

Station Type Date Time Source
KBPG TAF UTC NOAA

Error!

Example: see airport list